Time;durP1;ratioP1;P1;durP2;ratioP2;P2;SDS_P1;SDS_P2;PMS_P1;PMS_P2;Temp;Humidity;BMP_temperature;BMP_pressure;BME280_temperature;BME280_humidity;BME280_pressure;Samples;Min_cycle;Max_cycle;Signal;HPM_P1;HPM_P2
2021/03/17 00:00:56;;;;;;;;;;;3.80;99.90;;;;;;5078502;28;19912;-77
2021/03/17 00:03:22;;;;;;;;;;;3.80;99.90;;;;;;5084844;28;20438;-77
2021/03/17 00:05:49;;;;;;;;;;;3.80;99.90;;;;;;5092867;28;19966;-77
2021/03/17 00:08:16;;;;;;;;;;;3.80;99.90;;;;;;5093021;28;19916;-77
2021/03/17 00:10:42;;;;;;;;;;;3.70;99.90;;;;;;5093108;28;19930;-78
2021/03/17 00:13:08;;;;;;;;;;;3.80;99.90;;;;;;5093338;28;19912;-78
2021/03/17 00:15:35;;;;;;;;;;;3.80;99.90;;;;;;5093196;28;19908;-77
2021/03/17 00:18:00;;;;;;;;;;;3.80;99.90;;;;;;5093251;28;19909;-78
2021/03/17 00:20:27;;;;;;;;;;;3.80;99.90;;;;;;5093269;28;19908;-78
2021/03/17 00:22:53;;;;;;;;;;;3.80;99.90;;;;;;5092738;28;19915;-78
2021/03/17 00:25:20;;;;;;;;;;;3.80;99.90;;;;;;5092759;28;20355;-78
2021/03/17 00:27:45;;;;;;;;;;;3.80;99.90;;;;;;5090431;28;19908;-77
2021/03/17 00:30:11;;;;;;;;;;;3.80;99.90;;;;;;5095864;28;19962;-77
2021/03/17 00:32:37;;;;;;;;;;;3.80;99.90;;;;;;5089628;28;19961;-78
2021/03/17 00:35:03;;;;;;;;;;;3.80;99.90;;;;;;5087966;28;19923;-78
2021/03/17 00:37:28;;;;;;;;;;;3.80;99.90;;;;;;5091771;28;19978;-77
2021/03/17 00:39:54;;;;;;;;;;;3.80;99.90;;;;;;5090218;28;19908;-77
2021/03/17 00:42:19;;;;;;;;;;;3.80;99.90;;;;;;5092228;28;19962;-77
2021/03/17 00:44:44;;;;;;;;;;;3.70;99.90;;;;;;5092296;28;19908;-77
2021/03/17 00:47:10;;;;;;;;;;;3.60;99.90;;;;;;5091797;28;20564;-77
2021/03/17 00:49:35;;;;;;;;;;;3.50;99.90;;;;;;5091272;28;19912;-77
2021/03/17 00:52:01;;;;;;;;;;;3.40;99.90;;;;;;5089305;28;19966;-77
2021/03/17 00:54:27;;;;;;;;;;;3.40;99.90;;;;;;5089170;28;20003;-76
2021/03/17 00:56:52;;;;;;;;;;;3.40;99.90;;;;;;5081282;28;19951;-77
2021/03/17 00:59:17;;;;;;;;;;;3.30;99.90;;;;;;5090407;28;19912;-76
2021/03/17 01:01:43;;;;;;;;;;;3.30;99.90;;;;;;5091620;28;19908;-76
2021/03/17 01:04:08;;;;;;;;;;;3.30;99.90;;;;;;5091917;28;19908;-76
2021/03/17 01:06:34;;;;;;;;;;;3.20;99.90;;;;;;5091611;28;19908;-76
2021/03/17 01:08:59;;;;;;;;;;;3.20;99.90;;;;;;5091696;28;19908;-77
2021/03/17 01:11:25;;;;;;;;;;;3.20;99.90;;;;;;5091750;28;19908;-77
2021/03/17 01:13:50;;;;;;;;;;;3.20;99.90;;;;;;5091640;28;19909;-76
2021/03/17 01:16:16;;;;;;;;;;;3.20;99.90;;;;;;5089900;28;19912;-76
2021/03/17 01:18:41;;;;;;;;;;;3.10;99.90;;;;;;5091644;28;20385;-77
2021/03/17 01:21:07;;;;;;;;;;;3.10;99.90;;;;;;5091498;28;19915;-76
2021/03/17 01:23:32;;;;;;;;;;;3.00;99.90;;;;;;5091569;28;19930;-76
2021/03/17 01:25:58;;;;;;;;;;;2.90;99.90;;;;;;5085274;28;19912;-76
2021/03/17 01:28:23;;;;;;;;;;;2.90;99.90;;;;;;5082503;28;19908;-77
2021/03/17 01:30:50;;;;;;;;;;;2.80;99.90;;;;;;5091432;28;20277;-76
2021/03/17 01:33:16;;;;;;;;;;;2.80;99.90;;;;;;5091360;28;19908;-76
2021/03/17 01:35:43;;;;;;;;;;;2.70;99.90;;;;;;5089527;28;19916;-77
2021/03/17 01:38:09;;;;;;;;;;;2.70;99.90;;;;;;5081976;28;19939;-77
2021/03/17 01:40:36;;;;;;;;;;;2.70;99.90;;;;;;5088537;28;19948;-77
2021/03/17 01:43:01;;;;;;;;;;;2.70;99.90;;;;;;5084601;28;19908;-77
2021/03/17 01:45:27;;;;;;;;;;;2.70;99.90;;;;;;5091170;28;20276;-77
2021/03/17 01:47:53;;;;;;;;;;;2.70;99.90;;;;;;5091049;28;19912;-77
2021/03/17 01:50:26;;;;;;;;;;;2.70;99.90;;;;;;5093177;28;19999;-77
2021/03/17 01:52:53;;;;;;;;;;;2.70;99.90;;;;;;5097937;28;19953;-77
2021/03/17 01:55:18;;;;;;;;;;;2.70;99.90;;;;;;5097745;28;19912;-77
2021/03/17 01:57:44;;;;;;;;;;;2.80;99.90;;;;;;5088942;28;20010;-76
2021/03/17 02:00:11;;;;;;;;;;;2.80;99.90;;;;;;5097633;28;19916;-76
2021/03/17 02:02:40;;;;;;;;;;;2.80;99.90;;;;;;5097827;28;19930;-77
2021/03/17 02:05:10;;;;;;;;;;;2.80;99.90;;;;;;5098179;28;19915;-76
2021/03/17 02:07:36;;;;;;;;;;;2.80;99.90;;;;;;5097453;28;19908;-77
2021/03/17 02:10:05;;;;;;;;;;;2.80;99.90;;;;;;5097798;28;19915;-77
2021/03/17 02:12:35;;;;;;;;;;;2.80;99.90;;;;;;5097608;28;20392;-76
2021/03/17 02:15:11;;;;;;;;;;;2.80;99.90;;;;;;5096550;28;20368;-76
2021/03/17 02:17:38;;;;;;;;;;;2.90;99.90;;;;;;5097319;28;19916;-76
2021/03/17 02:20:07;;;;;;;;;;;2.90;99.90;;;;;;5097625;28;20418;-76
2021/03/17 02:22:42;;;;;;;;;;;2.90;99.90;;;;;;5097512;28;20326;-76
2021/03/17 02:25:25;;;;;;;;;;;3.00;99.90;;;;;;5097814;28;19908;-77
2021/03/17 02:27:57;;;;;;;;;;;3.00;99.90;;;;;;5089122;28;19915;-76
2021/03/17 02:30:41;;;;;;;;;;;2.90;99.90;;;;;;5097457;28;19915;-76
2021/03/17 02:33:25;;;;;;;;;;;2.90;99.90;;;;;;5089698;28;19931;-76
2021/03/17 02:35:54;;;;;;;;;;;2.90;99.90;;;;;;5096952;28;19916;-76
2021/03/17 02:38:20;;;;;;;;;;;2.90;99.90;;;;;;5097525;28;19915;-77
2021/03/17 02:40:46;;;;;;;;;;;2.90;99.90;;;;;;5097917;28;19931;-76
2021/03/17 02:43:19;;;;;;;;;;;2.90;99.90;;;;;;5097985;28;20003;-76
2021/03/17 02:45:47;;;;;;;;;;;2.90;99.90;;;;;;5096948;28;20414;-77
2021/03/17 02:48:22;;;;;;;;;;;2.90;99.90;;;;;;5089408;28;19909;-79
2021/03/17 02:50:48;;;;;;;;;;;2.90;99.90;;;;;;5104210;28;19964;-77
2021/03/17 02:53:19;;;;;;;;;;;2.90;99.90;;;;;;5118016;27;19907;-76
2021/03/17 02:55:50;;;;;;;;;;;2.90;99.90;;;;;;5117440;28;19922;-77
2021/03/17 02:58:16;;;;;;;;;;;2.90;99.90;;;;;;5117722;28;20002;-76
2021/03/17 03:00:42;;;;;;;;;;;2.90;99.90;;;;;;5117668;28;20391;-76
2021/03/17 03:03:09;;;;;;;;;;;2.90;99.90;;;;;;5113988;28;19912;-77
2021/03/17 03:05:34;;;;;;;;;;;2.80;99.90;;;;;;5114143;28;19912;-76
2021/03/17 03:08:00;;;;;;;;;;;2.80;99.90;;;;;;5114395;28;20364;-76
2021/03/17 03:10:28;;;;;;;;;;;2.70;99.90;;;;;;5114390;28;20388;-77
2021/03/17 03:12:54;;;;;;;;;;;2.70;99.90;;;;;;5092645;28;20288;-76
2021/03/17 03:15:21;;;;;;;;;;;2.70;99.90;;;;;;5093815;28;20008;-76
2021/03/17 03:17:47;;;;;;;;;;;2.70;99.90;;;;;;5093616;28;19919;-76
2021/03/17 03:20:15;;;;;;;;;;;2.70;99.90;;;;;;5093837;28;19912;-77
2021/03/17 03:22:42;;;;;;;;;;;2.70;99.90;;;;;;5093751;28;19908;-77
2021/03/17 03:25:08;;;;;;;;;;;2.70;99.90;;;;;;5093754;28;20323;-77
2021/03/17 03:27:34;;;;;;;;;;;2.70;99.90;;;;;;5093282;28;20003;-77
2021/03/17 03:30:02;;;;;;;;;;;2.70;99.90;;;;;;5093700;28;19908;-77
2021/03/17 03:32:27;;;;;;;;;;;2.60;99.90;;;;;;5093425;28;19908;-76
2021/03/17 03:34:53;;;;;;;;;;;2.60;99.90;;;;;;5093677;28;19966;-77
2021/03/17 03:37:18;;;;;;;;;;;2.60;99.90;;;;;;5093145;28;19915;-76
2021/03/17 03:39:44;;;;;;;;;;;2.50;99.90;;;;;;5093384;28;19908;-77
2021/03/17 03:42:09;;;;;;;;;;;2.50;99.90;;;;;;5087797;28;20349;-77
2021/03/17 03:44:35;;;;;;;;;;;2.50;99.90;;;;;;5093128;28;19935;-77
2021/03/17 03:47:00;;;;;;;;;;;2.50;99.90;;;;;;5091723;28;20281;-77
2021/03/17 03:49:26;;;;;;;;;;;2.40;99.90;;;;;;5093133;28;19908;-76
2021/03/17 03:52:13;;;;;;;;;;;2.40;99.90;;;;;;5093324;28;19915;-77
2021/03/17 03:54:42;;;;;;;;;;;2.40;99.90;;;;;;5093236;28;19965;-77
2021/03/17 03:57:12;;;;;;;;;;;2.40;99.90;;;;;;5090594;28;19959;-77
2021/03/17 03:59:41;;;;;;;;;;;2.40;99.90;;;;;;5093210;28;19912;-77
2021/03/17 04:02:08;;;;;;;;;;;2.40;99.90;;;;;;5093080;28;19966;-77
2021/03/17 04:04:37;;;;;;;;;;;2.40;99.90;;;;;;5092808;28;19934;-76
2021/03/17 04:07:03;;;;;;;;;;;2.30;99.90;;;;;;5092624;28;19952;-76
2021/03/17 04:09:45;;;;;;;;;;;2.30;99.90;;;;;;5092711;28;19957;-76
2021/03/17 04:12:11;;;;;;;;;;;2.40;99.90;;;;;;5091668;28;19946;-76
2021/03/17 04:14:37;;;;;;;;;;;2.30;99.90;;;;;;5092681;28;19966;-76
2021/03/17 04:17:11;;;;;;;;;;;2.40;99.90;;;;;;5091060;28;20274;-76
2021/03/17 04:19:39;;;;;;;;;;;2.40;99.90;;;;;;5091737;28;20332;-76
2021/03/17 04:22:05;;;;;;;;;;;2.40;99.90;;;;;;5092889;28;19908;-76
2021/03/17 04:24:31;;;;;;;;;;;2.40;99.90;;;;;;5092649;28;19995;-76
2021/03/17 04:26:58;;;;;;;;;;;2.40;99.90;;;;;;5090916;28;19951;-76
2021/03/17 04:29:24;;;;;;;;;;;2.40;99.90;;;;;;5092256;28;19908;-76
2021/03/17 04:31:50;;;;;;;;;;;2.40;99.90;;;;;;5092214;28;20369;-76
2021/03/17 04:34:17;;;;;;;;;;;2.50;99.90;;;;;;5092295;28;19947;-77
2021/03/17 04:36:42;;;;;;;;;;;2.50;99.90;;;;;;5091910;28;19912;-76
2021/03/17 04:39:08;;;;;;;;;;;2.60;99.90;;;;;;5092404;28;19942;-76
2021/03/17 04:41:34;;;;;;;;;;;2.70;99.90;;;;;;5092224;28;19952;-76
2021/03/17 04:44:00;;;;;;;;;;;2.60;99.90;;;;;;5091081;28;19953;-76
2021/03/17 04:46:26;;;;;;;;;;;2.60;99.90;;;;;;5091520;28;19908;-76
2021/03/17 04:48:51;;;;;;;;;;;2.60;99.90;;;;;;5092138;28;19908;-76
2021/03/17 04:51:17;;;;;;;;;;;2.60;99.90;;;;;;5092091;28;19916;-76
2021/03/17 04:53:43;;;;;;;;;;;2.60;99.90;;;;;;5090764;28;19908;-76
2021/03/17 04:56:09;;;;;;;;;;;2.70;99.90;;;;;;5091057;28;19930;-76
2021/03/17 04:58:36;;;;;;;;;;;2.70;99.90;;;;;;5090952;28;19916;-75
2021/03/17 05:01:05;;;;;;;;;;;2.70;99.90;;;;;;5090786;28;19909;-75
2021/03/17 05:03:32;;;;;;;;;;;2.70;99.90;;;;;;5091965;28;20215;-75
2021/03/17 05:05:57;;;;;;;;;;;2.70;99.90;;;;;;5091594;28;19960;-76
2021/03/17 05:08:23;;;;;;;;;;;2.70;99.90;;;;;;5090749;28;20364;-77
2021/03/17 05:10:49;;;;;;;;;;;2.70;99.90;;;;;;5091724;28;19908;-78
2021/03/17 05:13:15;;;;;;;;;;;2.70;99.90;;;;;;5091767;28;19951;-76
2021/03/17 05:15:41;;;;;;;;;;;2.70;99.90;;;;;;5091236;28;19908;-75
2021/03/17 05:18:07;;;;;;;;;;;2.70;99.90;;;;;;5091575;28;19975;-75
2021/03/17 05:20:33;;;;;;;;;;;2.70;99.90;;;;;;5091756;28;20258;-75
2021/03/17 05:22:59;;;;;;;;;;;2.80;99.90;;;;;;5092046;28;19919;-74
2021/03/17 05:25:25;;;;;;;;;;;2.80;99.90;;;;;;5092404;28;19962;-75
2021/03/17 05:27:54;;;;;;;;;;;2.70;99.90;;;;;;5091985;28;19908;-75
2021/03/17 05:30:21;;;;;;;;;;;2.70;99.90;;;;;;5091826;28;19912;-75
2021/03/17 05:32:48;;;;;;;;;;;2.60;99.90;;;;;;5091368;28;19962;-75
2021/03/17 05:35:14;;;;;;;;;;;2.70;99.90;;;;;;5092149;28;19965;-75
2021/03/17 05:37:40;;;;;;;;;;;2.70;99.90;;;;;;5090067;28;20008;-78
2021/03/17 05:40:07;;;;;;;;;;;2.70;99.90;;;;;;5093112;28;20003;-75
2021/03/17 05:42:33;;;;;;;;;;;2.80;99.90;;;;;;5091164;28;19908;-75
2021/03/17 05:44:58;;;;;;;;;;;2.80;99.90;;;;;;5091850;28;19908;-75
2021/03/17 05:47:24;;;;;;;;;;;2.90;99.90;;;;;;5091187;28;19908;-76
2021/03/17 05:49:50;;;;;;;;;;;2.90;99.90;;;;;;5091532;28;19908;-76
2021/03/17 05:52:17;;;;;;;;;;;2.90;99.90;;;;;;5091593;28;20049;-75
2021/03/17 05:54:42;;;;;;;;;;;2.90;99.90;;;;;;5090277;28;19908;-75
2021/03/17 05:57:09;;;;;;;;;;;2.80;99.90;;;;;;5090887;28;19923;-78
2021/03/17 05:59:35;;;;;;;;;;;2.70;99.90;;;;;;5091628;28;20273;-75
2021/03/17 06:02:00;;;;;;;;;;;2.70;99.90;;;;;;5091292;28;19908;-76
2021/03/17 06:04:27;;;;;;;;;;;2.70;99.90;;;;;;5091457;28;19908;-75
2021/03/17 06:06:55;;;;;;;;;;;2.80;99.90;;;;;;5091042;28;19908;-78
2021/03/17 06:09:22;;;;;;;;;;;2.80;99.90;;;;;;5091305;28;19908;-79
2021/03/17 06:11:49;;;;;;;;;;;2.80;99.90;;;;;;5098225;28;19908;-75
2021/03/17 06:14:17;;;;;;;;;;;2.80;99.90;;;;;;5111654;28;19907;-75
2021/03/17 06:16:44;;;;;;;;;;;2.90;99.90;;;;;;5111210;28;19965;-76
2021/03/17 06:19:12;;;;;;;;;;;2.90;99.90;;;;;;5111628;28;19953;-75
2021/03/17 06:21:38;;;;;;;;;;;2.90;99.90;;;;;;5111521;28;20494;-75
2021/03/17 06:24:04;;;;;;;;;;;2.90;99.90;;;;;;5106848;28;19995;-76
2021/03/17 06:26:29;;;;;;;;;;;2.90;99.90;;;;;;5082561;28;20281;-75
2021/03/17 06:28:55;;;;;;;;;;;2.90;99.90;;;;;;5090912;28;19934;-76
2021/03/17 06:31:21;;;;;;;;;;;2.90;99.90;;;;;;5090294;28;19951;-75
2021/03/17 06:33:46;;;;;;;;;;;2.90;99.90;;;;;;5090402;28;19908;-75
2021/03/17 06:36:16;;;;;;;;;;;2.90;99.90;;;;;;5088838;28;19999;-75
2021/03/17 06:38:42;;;;;;;;;;;2.90;99.90;;;;;;5087231;28;19999;-75
2021/03/17 06:41:08;;;;;;;;;;;2.90;99.90;;;;;;5088768;28;20033;-75
2021/03/17 06:43:39;;;;;;;;;;;2.90;99.90;;;;;;5094849;28;20038;-77
2021/03/17 06:46:06;;;;;;;;;;;2.90;99.90;;;;;;5094431;28;19915;-75
2021/03/17 06:48:32;;;;;;;;;;;2.90;99.90;;;;;;5093425;28;19934;-75
2021/03/17 06:51:08;;;;;;;;;;;2.80;99.90;;;;;;5094675;28;19909;-76
2021/03/17 06:53:34;;;;;;;;;;;2.80;99.90;;;;;;5094677;28;19912;-79
2021/03/17 06:56:09;;;;;;;;;;;2.80;99.90;;;;;;5094317;28;19912;-75
2021/03/17 06:58:38;;;;;;;;;;;2.80;99.90;;;;;;5094445;28;19912;-78
2021/03/17 07:01:04;;;;;;;;;;;2.70;99.90;;;;;;5094519;28;20281;-75
2021/03/17 07:03:29;;;;;;;;;;;2.80;99.90;;;;;;5094903;28;19908;-77
2021/03/17 07:05:55;;;;;;;;;;;2.80;99.90;;;;;;5089372;28;19922;-75
2021/03/17 07:08:28;;;;;;;;;;;2.70;99.90;;;;;;5086190;28;19912;-75
2021/03/17 07:10:57;;;;;;;;;;;2.70;99.90;;;;;;5088742;28;20575;-74
2021/03/17 07:13:24;;;;;;;;;;;2.70;99.90;;;;;;5093915;28;19931;-75
2021/03/17 07:15:54;;;;;;;;;;;2.70;99.90;;;;;;5093909;28;19977;-77
2021/03/17 07:18:24;;;;;;;;;;;2.70;99.90;;;;;;5094165;28;19951;-74
2021/03/17 07:20:58;;;;;;;;;;;2.70;99.90;;;;;;5094251;28;20357;-74
2021/03/17 07:23:24;;;;;;;;;;;2.70;99.90;;;;;;5094135;28;19908;-75
2021/03/17 07:26:09;;;;;;;;;;;2.70;99.90;;;;;;5093655;28;20602;-78
2021/03/17 07:28:55;;;;;;;;;;;2.60;99.90;;;;;;5093934;28;19961;-75
2021/03/17 07:31:24;;;;;;;;;;;2.60;99.90;;;;;;5089832;28;19951;-77
2021/03/17 07:33:50;;;;;;;;;;;2.50;99.90;;;;;;5093802;28;19908;-74
2021/03/17 07:36:51;;;;;;;;;;;2.40;99.90;;;;;;5093183;28;19916;-75
2021/03/17 07:39:29;;;;;;;;;;;2.40;99.90;;;;;;5063825;28;20154;-75
2021/03/17 07:41:56;;;;;;;;;;;2.40;99.90;;;;;;5088314;28;19908;-74
2021/03/17 07:44:22;;;;;;;;;;;2.40;99.90;;;;;;5111375;28;19908;-75
2021/03/17 07:46:49;;;;;;;;;;;2.40;99.90;;;;;;5093033;28;20316;-74
2021/03/17 07:49:15;;;;;;;;;;;2.50;99.90;;;;;;5092431;28;19915;-77
2021/03/17 07:51:43;;;;;;;;;;;2.60;99.90;;;;;;5090418;28;19912;-75
2021/03/17 07:54:09;;;;;;;;;;;2.60;99.90;;;;;;5088876;28;19912;-78
2021/03/17 07:56:37;;;;;;;;;;;2.70;99.90;;;;;;5089586;28;19916;-78
2021/03/17 07:59:02;;;;;;;;;;;2.70;99.90;;;;;;5089689;28;19908;-75
2021/03/17 08:01:28;;;;;;;;;;;2.80;99.90;;;;;;5090626;28;19911;-75
2021/03/17 08:03:55;;;;;;;;;;;2.90;99.90;;;;;;5089892;28;19915;-75
2021/03/17 08:06:21;;;;;;;;;;;3.00;99.90;;;;;;5090046;28;19915;-74
2021/03/17 08:08:49;;;;;;;;;;;3.10;99.90;;;;;;5088610;28;19908;-75
2021/03/17 08:11:17;;;;;;;;;;;3.10;99.90;;;;;;5091205;28;20101;-75
2021/03/17 08:13:43;;;;;;;;;;;3.20;99.90;;;;;;5090237;28;19965;-75
2021/03/17 08:16:09;;;;;;;;;;;3.30;99.90;;;;;;5076493;28;19920;-75
2021/03/17 08:18:36;;;;;;;;;;;3.50;99.90;;;;;;5090491;28;19916;-75
2021/03/17 08:21:02;;;;;;;;;;;3.60;99.90;;;;;;5092379;28;19947;-75
2021/03/17 08:23:42;;;;;;;;;;;3.70;99.90;;;;;;5081580;28;19916;-75
2021/03/17 08:26:34;;;;;;;;;;;3.80;99.90;;;;;;5091864;28;19912;-76
2021/03/17 08:28:59;;;;;;;;;;;3.80;99.90;;;;;;5076855;28;19912;-76
2021/03/17 08:31:37;;;;;;;;;;;3.90;99.90;;;;;;5090812;28;19908;-75
2021/03/17 08:34:33;;;;;;;;;;;4.10;99.90;;;;;;5088218;28;19908;-75
2021/03/17 08:36:59;;;;;;;;;;;4.10;99.90;;;;;;5072303;28;20019;-75
2021/03/17 08:39:33;;;;;;;;;;;3.90;99.90;;;;;;5091467;28;20003;-75
2021/03/17 08:42:00;;;;;;;;;;;3.90;99.90;;;;;;5086860;28;20243;-75
2021/03/17 08:44:31;;;;;;;;;;;4.00;99.90;;;;;;5091383;28;19934;-79
2021/03/17 08:47:12;;;;;;;;;;;4.00;99.90;;;;;;5095049;28;19907;-75
2021/03/17 08:49:38;;;;;;;;;;;4.00;99.90;;;;;;5092113;28;19955;-75
2021/03/17 08:52:03;;;;;;;;;;;4.10;99.90;;;;;;5085833;28;20373;-75
2021/03/17 08:54:34;;;;;;;;;;;4.20;99.90;;;;;;5088321;28;19908;-76
2021/03/17 08:57:00;;;;;;;;;;;4.30;99.90;;;;;;5088956;28;19912;-77
2021/03/17 08:59:38;;;;;;;;;;;4.50;99.90;;;;;;5090007;28;19908;-75
2021/03/17 09:02:03;;;;;;;;;;;4.80;99.90;;;;;;5089756;28;19909;-75
2021/03/17 09:04:45;;;;;;;;;;;5.00;99.90;;;;;;5090018;28;20009;-76
2021/03/17 09:07:11;;;;;;;;;;;5.20;99.90;;;;;;5093874;28;19957;-76
2021/03/17 09:09:53;;;;;;;;;;;5.20;99.90;;;;;;5087136;28;19908;-76
2021/03/17 09:12:24;;;;;;;;;;;5.30;99.90;;;;;;5089961;28;19943;-78
2021/03/17 09:14:50;;;;;;;;;;;5.70;99.90;;;;;;5087285;28;19970;-76
2021/03/17 09:17:17;;;;;;;;;;;6.00;99.90;;;;;;5083686;28;19919;-75
2021/03/17 09:20:04;;;;;;;;;;;6.40;99.90;;;;;;5088804;28;19908;-78
2021/03/17 09:22:35;;;;;;;;;;;7.00;99.90;;;;;;5096583;28;19908;-79
2021/03/17 09:25:11;;;;;;;;;;;8.00;99.90;;;;;;5083608;28;20161;-76
2021/03/17 09:27:48;;;;;;;;;;;8.90;99.90;;;;;;5082219;28;19908;-77
2021/03/17 09:30:15;;;;;;;;;;;9.40;99.90;;;;;;5079910;28;19915;-77
2021/03/17 09:32:41;;;;;;;;;;;9.50;99.90;;;;;;5081316;28;20235;-75
2021/03/17 09:35:06;;;;;;;;;;;9.60;99.90;;;;;;5085661;28;20392;-75
2021/03/17 09:37:32;;;;;;;;;;;9.70;99.90;;;;;;5091355;28;20284;-75
2021/03/17 09:39:57;;;;;;;;;;;10.10;99.90;;;;;;5080969;28;19912;-77
2021/03/17 09:42:23;;;;;;;;;;;10.50;99.90;;;;;;5088929;28;19915;-78
2021/03/17 09:44:56;;;;;;;;;;;10.60;99.90;;;;;;5088896;28;19912;-76
2021/03/17 09:47:30;;;;;;;;;;;10.50;99.50;;;;;;5084601;28;19909;-76
2021/03/17 09:49:56;;;;;;;;;;;10.40;99.90;;;;;;5087040;28;19908;-76
2021/03/17 09:52:23;;;;;;;;;;;10.30;99.90;;;;;;5088015;28;19953;-76
2021/03/17 09:54:48;;;;;;;;;;;10.20;99.90;;;;;;5087099;28;19920;-76
2021/03/17 09:57:14;;;;;;;;;;;10.20;99.90;;;;;;5089060;28;20392;-81
2021/03/17 09:59:40;;;;;;;;;;;10.60;99.90;;;;;;5099574;28;19914;-78
2021/03/17 10:02:06;;;;;;;;;;;10.70;99.90;;;;;;5088293;28;19908;-79
2021/03/17 10:04:45;;;;;;;;;;;10.70;99.70;;;;;;5086712;28;19938;-80
2021/03/17 10:07:32;;;;;;;;;;;10.40;99.10;;;;;;5084855;28;19916;-79
2021/03/17 10:09:58;;;;;;;;;;;9.90;99.90;;;;;;5090346;28;19908;-78
2021/03/17 10:12:25;;;;;;;;;;;9.80;99.90;;;;;;5105072;28;19922;-81
2021/03/17 10:14:52;;;;;;;;;;;10.20;99.90;;;;;;5097626;28;20284;-76
2021/03/17 10:17:18;;;;;;;;;;;10.30;98.90;;;;;;5107930;28;19927;-76
2021/03/17 10:19:48;;;;;;;;;;;10.10;98.10;;;;;;5091685;28;19908;-76
2021/03/17 10:22:14;;;;;;;;;;;9.70;99.10;;;;;;5084178;28;20011;-76
2021/03/17 10:24:47;;;;;;;;;;;9.50;99.70;;;;;;5094273;28;20162;-76
2021/03/17 10:27:17;;;;;;;;;;;9.20;99.40;;;;;;5093046;28;19908;-77
2021/03/17 10:29:44;;;;;;;;;;;9.30;99.90;;;;;;5090021;28;19958;-76
2021/03/17 10:32:12;;;;;;;;;;;9.80;99.90;;;;;;5091164;28;19967;-76
2021/03/17 10:34:38;;;;;;;;;;;10.50;98.30;;;;;;5094074;28;19920;-76
2021/03/17 10:37:04;;;;;;;;;;;11.00;97.00;;;;;;5092929;28;19912;-76
2021/03/17 10:39:31;;;;;;;;;;;11.50;97.10;;;;;;5091501;28;20299;-76
2021/03/17 10:41:57;;;;;;;;;;;12.00;97.30;;;;;;5090491;28;20338;-83
2021/03/17 10:44:24;;;;;;;;;;;12.80;95.40;;;;;;5088966;28;19999;-76
2021/03/17 10:46:59;;;;;;;;;;;13.00;94.00;;;;;;5107065;28;20288;-76
2021/03/17 10:49:24;;;;;;;;;;;12.70;91.90;;;;;;5091848;28;20098;-76
2021/03/17 10:51:51;;;;;;;;;;;12.30;93.60;;;;;;5090250;28;19908;-76
2021/03/17 10:54:25;;;;;;;;;;;12.50;93.30;;;;;;5083643;28;19908;-76
2021/03/17 10:56:51;;;;;;;;;;;12.50;91.90;;;;;;5094347;28;19916;-79
2021/03/17 10:59:24;;;;;;;;;;;12.50;91.20;;;;;;5093345;28;19957;-79
2021/03/17 11:01:49;;;;;;;;;;;12.30;92.20;;;;;;5091766;28;19908;-77
2021/03/17 11:04:16;;;;;;;;;;;11.70;92.10;;;;;;5101591;28;20276;-80
2021/03/17 11:06:56;;;;;;;;;;;11.10;92.70;;;;;;5092826;28;19908;-77
2021/03/17 11:09:21;;;;;;;;;;;10.70;94.70;;;;;;5090876;28;19908;-80
2021/03/17 11:11:50;;;;;;;;;;;10.00;92.60;;;;;;5089497;28;19915;-76
2021/03/17 11:14:35;;;;;;;;;;;9.80;93.60;;;;;;5094175;28;20365;-76
2021/03/17 11:17:07;;;;;;;;;;;9.60;94.30;;;;;;5090324;28;19920;-76
2021/03/17 11:19:33;;;;;;;;;;;9.20;93.30;;;;;;5092387;28;19908;-76
2021/03/17 11:21:58;;;;;;;;;;;8.90;94.90;;;;;;5089533;28;20007;-76
2021/03/17 11:24:23;;;;;;;;;;;8.50;93.90;;;;;;5091683;28;19912;-79
2021/03/17 11:26:49;;;;;;;;;;;8.30;95.20;;;;;;5113718;28;19908;-76
2021/03/17 11:29:19;;;;;;;;;;;8.00;94.30;;;;;;5088898;28;19915;-76
2021/03/17 11:31:49;;;;;;;;;;;7.80;95.70;;;;;;5092368;28;19909;-76
2021/03/17 11:34:15;;;;;;;;;;;7.80;96.40;;;;;;5093768;28;19934;-76
2021/03/17 11:36:41;;;;;;;;;;;7.70;96.70;;;;;;5092961;28;19915;-76
2021/03/17 11:39:12;;;;;;;;;;;7.70;95.40;;;;;;5090763;28;19981;-76
2021/03/17 11:41:38;;;;;;;;;;;7.60;97.20;;;;;;5090057;28;20381;-76
2021/03/17 11:44:05;;;;;;;;;;;7.70;97.10;;;;;;5090773;28;19919;-78
2021/03/17 11:46:30;;;;;;;;;;;7.70;96.20;;;;;;5093013;28;20009;-79
2021/03/17 11:48:56;;;;;;;;;;;7.80;97.20;;;;;;5092934;28;20356;-77
2021/03/17 11:51:22;;;;;;;;;;;7.80;95.80;;;;;;5087254;28;19908;-78
2021/03/17 11:53:48;;;;;;;;;;;7.80;97.50;;;;;;5086772;28;19909;-77
2021/03/17 11:56:13;;;;;;;;;;;7.80;97.60;;;;;;5091548;28;19916;-78
2021/03/17 11:58:39;;;;;;;;;;;7.80;96.90;;;;;;5087727;28;19920;-77
2021/03/17 12:01:05;;;;;;;;;;;7.70;96.70;;;;;;5082534;28;19909;-77
2021/03/17 12:03:31;;;;;;;;;;;7.70;96.90;;;;;;5088911;28;19912;-78
2021/03/17 12:05:57;;;;;;;;;;;7.70;96.90;;;;;;5084797;28;19919;-80
2021/03/17 12:08:22;;;;;;;;;;;7.50;96.80;;;;;;5089712;28;19912;-77
2021/03/17 12:10:51;;;;;;;;;;;7.40;97.60;;;;;;5089732;28;20003;-77
2021/03/17 12:13:16;;;;;;;;;;;7.20;97.30;;;;;;5089134;28;20090;-78
2021/03/17 12:15:42;;;;;;;;;;;7.00;98.40;;;;;;5088153;28;20380;-78
2021/03/17 12:18:08;;;;;;;;;;;6.80;98.70;;;;;;5091228;28;19951;-77
2021/03/17 12:20:33;;;;;;;;;;;6.40;99.10;;;;;;5092487;28;19908;-77
2021/03/17 12:23:00;;;;;;;;;;;6.10;99.90;;;;;;5087905;28;19916;-80
2021/03/17 12:25:26;;;;;;;;;;;5.90;99.90;;;;;;5092625;28;19954;-77
2021/03/17 12:27:51;;;;;;;;;;;5.80;99.90;;;;;;5090144;28;19943;-78
2021/03/17 12:30:18;;;;;;;;;;;5.60;99.90;;;;;;5087736;28;19908;-77
2021/03/17 12:32:44;;;;;;;;;;;5.50;99.90;;;;;;5096609;28;19935;-79
2021/03/17 12:35:10;;;;;;;;;;;5.30;99.90;;;;;;5097126;28;19915;-78
2021/03/17 12:37:36;;;;;;;;;;;5.30;99.90;;;;;;5092753;28;19923;-78
2021/03/17 12:40:03;;;;;;;;;;;5.20;99.90;;;;;;5090443;28;19919;-78
2021/03/17 12:42:28;;;;;;;;;;;5.10;99.90;;;;;;5071912;28;19908;-77
2021/03/17 12:44:53;;;;;;;;;;;5.00;99.90;;;;;;5079201;28;19931;-77
2021/03/17 12:47:19;;;;;;;;;;;4.90;99.90;;;;;;5088866;28;19923;-77
2021/03/17 12:49:44;;;;;;;;;;;4.70;99.90;;;;;;5088555;28;19999;-77
2021/03/17 12:52:11;;;;;;;;;;;4.70;99.90;;;;;;5094813;28;20007;-77
2021/03/17 12:54:37;;;;;;;;;;;4.60;99.90;;;;;;5089084;28;19908;-77
2021/03/17 12:57:02;;;;;;;;;;;4.70;99.90;;;;;;5088608;28;19951;-78
2021/03/17 12:59:28;;;;;;;;;;;4.90;99.90;;;;;;5089367;28;20008;-77
2021/03/17 13:01:53;;;;;;;;;;;4.90;99.90;;;;;;5094760;28;19953;-77
2021/03/17 13:04:19;;;;;;;;;;;5.00;99.90;;;;;;5092741;28;20265;-77
2021/03/17 13:06:44;;;;;;;;;;;5.10;99.90;;;;;;5087274;28;19912;-77
2021/03/17 13:09:10;;;;;;;;;;;5.10;99.90;;;;;;5088667;28;19919;-78
2021/03/17 13:11:36;;;;;;;;;;;5.10;99.90;;;;;;5084608;28;19916;-77
2021/03/17 13:14:06;;;;;;;;;;;5.00;99.90;;;;;;5089884;28;19922;-76
2021/03/17 13:16:33;;;;;;;;;;;5.00;99.90;;;;;;5086226;28;20093;-76
2021/03/17 13:18:58;;;;;;;;;;;4.90;99.90;;;;;;5093570;28;20383;-77
2021/03/17 13:21:24;;;;;;;;;;;4.70;99.90;;;;;;5087696;28;19915;-76
2021/03/17 13:23:49;;;;;;;;;;;4.60;99.90;;;;;;5088999;28;20326;-76
2021/03/17 13:26:15;;;;;;;;;;;4.60;99.90;;;;;;5088130;28;19915;-77
2021/03/17 13:28:40;;;;;;;;;;;4.80;99.90;;;;;;5088129;28;20469;-76
2021/03/17 13:31:06;;;;;;;;;;;4.90;99.90;;;;;;5081888;28;19917;-76
2021/03/17 13:33:32;;;;;;;;;;;5.00;99.90;;;;;;5082591;28;19908;-77
2021/03/17 13:35:57;;;;;;;;;;;5.10;99.90;;;;;;5084142;28;19916;-77
2021/03/17 13:38:22;;;;;;;;;;;5.00;99.90;;;;;;5091032;28;19908;-77
2021/03/17 13:40:49;;;;;;;;;;;4.90;99.90;;;;;;5090847;28;19967;-77
2021/03/17 13:43:14;;;;;;;;;;;4.80;99.90;;;;;;5090414;28;19915;-77
2021/03/17 13:45:42;;;;;;;;;;;4.90;99.90;;;;;;5089382;28;19912;-77
2021/03/17 13:48:08;;;;;;;;;;;4.90;99.90;;;;;;5087324;28;20354;-76
2021/03/17 13:50:34;;;;;;;;;;;4.90;99.90;;;;;;5088336;28;19915;-77
2021/03/17 13:52:59;;;;;;;;;;;5.00;99.90;;;;;;5089857;28;20370;-77
2021/03/17 13:55:25;;;;;;;;;;;5.10;99.90;;;;;;5090246;28;20372;-77
2021/03/17 13:57:52;;;;;;;;;;;5.20;99.90;;;;;;5089440;28;20357;-77
2021/03/17 14:00:18;;;;;;;;;;;5.20;99.90;;;;;;5089333;28;19912;-79
2021/03/17 14:02:44;;;;;;;;;;;5.30;99.90;;;;;;5091757;28;19951;-77
2021/03/17 14:05:10;;;;;;;;;;;5.30;99.90;;;;;;5100483;28;19959;-77
2021/03/17 14:07:36;;;;;;;;;;;5.30;99.90;;;;;;5089218;28;19908;-77
2021/03/17 14:10:04;;;;;;;;;;;5.30;99.90;;;;;;5096010;28;20016;-78
2021/03/17 14:12:29;;;;;;;;;;;5.20;99.90;;;;;;5098131;28;20401;-77
2021/03/17 14:14:55;;;;;;;;;;;5.20;99.90;;;;;;5086364;28;20005;-77
2021/03/17 14:17:20;;;;;;;;;;;5.00;99.90;;;;;;5088718;28;19923;-76
2021/03/17 14:19:46;;;;;;;;;;;4.80;99.90;;;;;;5090920;28;19908;-78
2021/03/17 14:22:11;;;;;;;;;;;4.70;99.90;;;;;;5090890;28;19914;-76
2021/03/17 14:24:37;;;;;;;;;;;4.70;99.90;;;;;;5089531;28;20428;-77
2021/03/17 14:27:02;;;;;;;;;;;4.80;99.90;;;;;;5089519;28;19912;-77
2021/03/17 14:29:28;;;;;;;;;;;4.80;99.90;;;;;;5090139;28;20131;-77
2021/03/17 14:31:53;;;;;;;;;;;4.90;99.90;;;;;;5088309;28;20093;-77